createdAt,value
2023-03-03T00:00:46.691Z,23.00
2023-03-03T00:01:48.998Z,25.10
2023-03-03T00:02:51.254Z,24.70
2023-03-03T00:03:54.127Z,24.50
2023-03-03T00:04:56.727Z,24.20
2023-03-03T00:05:59.865Z,24.70
2023-03-03T00:07:02.669Z,24.73
2023-03-03T00:08:05.208Z,21.20
2023-03-03T00:09:07.621Z,20.50
2023-03-03T00:10:14.691Z,19.70
2023-03-03T00:11:18.075Z,19.10
2023-03-03T00:12:29.491Z,19.70
2023-03-03T00:13:33.253Z,19.60
2023-03-03T00:14:35.831Z,19.30
2023-03-03T00:15:39.407Z,17.20
2023-03-03T00:16:43.603Z,17.10
2023-03-03T00:17:47.140Z,18.80
2023-03-03T00:18:50.704Z,17.90
2023-03-03T00:19:54.474Z,18.00
2023-03-03T00:21:03.696Z,18.90
2023-03-03T00:22:09.640Z,16.00
2023-03-03T00:23:18.443Z,17.50
2023-03-03T00:24:36.396Z,14.10
2023-03-03T00:25:42.604Z,17.60
2023-03-03T00:26:51.320Z,16.10
2023-03-03T00:27:54.091Z,18.30
2023-03-03T00:28:56.870Z,24.73
2023-03-03T00:30:00.751Z,23.40
2023-03-03T00:31:07.488Z,25.30
2023-03-03T00:32:14.117Z,24.90
2023-03-03T00:33:23.306Z,25.90
2023-03-03T00:34:27.963Z,23.10
2023-03-03T00:35:35.874Z,25.20
2023-03-03T00:36:39.347Z,23.80
2023-03-03T00:37:41.872Z,19.90
2023-03-03T00:38:44.383Z,22.50
2023-03-03T00:39:46.855Z,22.50
2023-03-03T00:40:50.182Z,22.80
2023-03-03T00:41:53.756Z,20.90
2023-03-03T00:42:59.744Z,22.40
2023-03-03T00:44:05.800Z,23.90
2023-03-03T00:45:18.807Z,27.00
2023-03-03T00:46:23.085Z,25.70
2023-03-03T00:47:31.396Z,26.50
2023-03-03T00:48:40.426Z,25.60
2023-03-03T00:49:43.440Z,25.50
2023-03-03T00:50:46.865Z,26.30
2023-03-03T00:51:49.912Z,28.90
2023-03-03T00:53:05.279Z,26.00
2023-03-03T00:54:08.092Z,22.90
2023-03-03T00:55:10.777Z,25.60
2023-03-03T00:56:15.384Z,26.40
2023-03-03T00:57:18.106Z,28.70
2023-03-03T00:58:22.159Z,25.20
2023-03-03T00:59:25.421Z,22.30
2023-03-03T01:00:28.145Z,25.10
2023-03-03T01:01:31.147Z,26.00
2023-03-03T01:02:33.807Z,26.00
2023-03-03T01:03:36.496Z,21.64
2023-03-03T01:04:41.655Z,27.70
2023-03-03T01:05:44.638Z,27.10
2023-03-03T01:06:47.264Z,28.82
2023-03-03T01:07:49.626Z,29.50
2023-03-03T01:08:52.676Z,27.27
2023-03-03T01:09:55.151Z,26.80
2023-03-03T01:11:07.371Z,28.40
2023-03-03T01:12:10.893Z,25.90
2023-03-03T01:13:13.833Z,26.50
2023-03-03T01:14:16.945Z,24.36
2023-03-03T01:15:19.422Z,24.90
2023-03-03T01:16:23.548Z,24.60
2023-03-03T01:17:26.564Z,25.80
2023-03-03T01:18:31.629Z,25.50
2023-03-03T01:19:34.140Z,25.20
2023-03-03T01:20:36.889Z,23.10
2023-03-03T01:21:39.522Z,25.00
2023-03-03T01:22:42.235Z,22.70
2023-03-03T01:23:46.059Z,22.70
2023-03-03T01:24:49.741Z,23.70
2023-03-03T01:25:52.289Z,20.90
2023-03-03T01:26:54.865Z,22.10
2023-03-03T01:27:58.577Z,22.40
2023-03-03T01:29:00.849Z,18.40
2023-03-03T01:30:05.534Z,21.30
2023-03-03T01:31:08.165Z,18.80
2023-03-03T01:32:11.049Z,21.91
2023-03-03T01:33:13.682Z,22.82
2023-03-03T01:34:16.687Z,23.20
2023-03-03T01:35:20.698Z,27.82
2023-03-03T01:36:28.326Z,32.00
2023-03-03T01:37:30.833Z,26.60
2023-03-03T01:38:35.662Z,37.50
2023-03-03T01:39:38.992Z,37.60
2023-03-03T01:40:41.775Z,41.90
2023-03-03T01:41:44.153Z,38.80
2023-03-03T01:42:46.922Z,36.20
2023-03-03T01:43:50.505Z,46.10
2023-03-03T01:45:11.637Z,39.90
2023-03-03T01:46:39.583Z,40.10
2023-03-03T01:47:54.548Z,41.50
2023-03-03T01:49:03.434Z,38.30
2023-03-03T01:50:12.960Z,38.40
2023-03-03T01:51:27.839Z,39.40
2023-03-03T01:52:37.243Z,34.40
2023-03-03T01:54:58.045Z,32.30
2023-03-03T01:56:02.665Z,31.80
2023-03-03T01:57:08.754Z,29.50
2023-03-03T01:58:24.027Z,30.50
2023-03-03T01:59:36.102Z,24.60
2023-03-03T02:00:41.779Z,27.30
2023-03-03T02:01:46.673Z,28.40
2023-03-03T02:02:49.649Z,26.80
2023-03-03T02:03:52.842Z,23.20
2023-03-03T02:04:55.767Z,25.80
2023-03-03T02:06:02.994Z,27.40
2023-03-03T02:07:10.968Z,25.30
2023-03-03T02:08:17.081Z,25.20
2023-03-03T02:09:41.705Z,27.20
2023-03-03T02:10:46.272Z,26.00
2023-03-03T02:11:52.145Z,26.10
2023-03-03T02:12:57.463Z,26.20
2023-03-03T02:14:00.132Z,23.50
2023-03-03T02:15:04.345Z,21.70
2023-03-03T02:16:08.224Z,24.90
2023-03-03T02:17:13.373Z,24.00
2023-03-03T02:18:19.308Z,25.60
2023-03-03T02:19:28.174Z,25.50
2023-03-03T02:20:55.532Z,23.50
2023-03-03T02:22:01.532Z,25.70
2023-03-03T02:24:37.172Z,24.80
2023-03-03T02:25:47.349Z,24.50
2023-03-03T02:26:50.366Z,23.80
2023-03-03T02:27:52.968Z,28.70
2023-03-03T02:28:57.365Z,25.20
2023-03-03T02:30:08.778Z,24.10
2023-03-03T02:31:15.284Z,25.10
2023-03-03T02:32:18.437Z,25.80
2023-03-03T02:33:22.290Z,26.30
2023-03-03T02:34:24.624Z,26.36
2023-03-03T02:35:35.134Z,27.50
2023-03-03T02:36:39.730Z,27.80
2023-03-03T02:37:43.104Z,31.90
2023-03-03T02:38:58.274Z,30.10
2023-03-03T02:40:03.797Z,29.40
2023-03-03T02:41:24.935Z,30.70
2023-03-03T02:42:31.143Z,26.50
2023-03-03T02:43:43.443Z,26.90
2023-03-03T02:44:46.363Z,29.40
2023-03-03T02:45:49.094Z,31.09
2023-03-03T02:46:53.586Z,29.30
2023-03-03T02:47:56.366Z,28.10
2023-03-03T02:48:58.859Z,27.30
2023-03-03T02:50:02.419Z,25.00
2023-03-03T02:51:05.489Z,23.80
2023-03-03T02:52:10.232Z,28.80
2023-03-03T02:53:14.142Z,25.40
2023-03-03T02:54:19.423Z,29.09
2023-03-03T02:55:22.536Z,28.20
2023-03-03T02:56:25.102Z,25.36
2023-03-03T02:57:27.677Z,26.90
2023-03-03T02:58:30.557Z,27.70
2023-03-03T02:59:33.303Z,26.00
2023-03-03T03:00:37.823Z,25.20
2023-03-03T03:01:40.490Z,24.20
2023-03-03T03:02:44.930Z,24.90
2023-03-03T03:03:48.155Z,23.70
2023-03-03T03:04:53.144Z,24.90
2023-03-03T03:05:57.807Z,28.90
2023-03-03T03:07:00.916Z,23.40
2023-03-03T03:08:04.810Z,27.50
2023-03-03T03:09:09.050Z,25.82
2023-03-03T03:10:12.152Z,27.50
2023-03-03T03:11:15.675Z,26.55
2023-03-03T03:12:20.389Z,25.10
2023-03-03T03:13:25.312Z,22.30
2023-03-03T03:14:28.213Z,25.20
2023-03-03T03:15:30.789Z,22.80
2023-03-03T03:16:34.558Z,20.20
2023-03-03T03:17:38.791Z,19.20
2023-03-03T03:18:41.524Z,9.50
2023-03-03T03:19:44.095Z,17.20
2023-03-03T03:20:48.525Z,22.91
2023-03-03T03:21:52.349Z,24.00
2023-03-03T03:22:56.147Z,23.70
2023-03-03T03:23:59.230Z,24.60
2023-03-03T03:25:02.058Z,26.70
2023-03-03T03:26:06.395Z,32.40
2023-03-03T03:27:09.034Z,33.20
2023-03-03T03:28:12.295Z,32.40
2023-03-03T03:29:14.869Z,30.10
2023-03-03T03:30:19.908Z,31.50
2023-03-03T03:31:22.981Z,34.40
2023-03-03T03:32:25.559Z,35.55
2023-03-03T03:33:28.305Z,39.50
2023-03-03T03:34:31.949Z,27.40
2023-03-03T03:35:35.587Z,34.30
2023-03-03T03:36:39.271Z,33.00
2023-03-03T03:37:43.347Z,29.50
2023-03-03T03:38:46.074Z,29.00
2023-03-03T03:39:48.555Z,30.20
2023-03-03T03:40:53.748Z,27.10
2023-03-03T03:41:56.289Z,25.90
2023-03-03T03:42:58.558Z,27.90
2023-03-03T03:44:01.402Z,32.40
2023-03-03T03:45:06.010Z,31.80
2023-03-03T03:46:09.215Z,27.50
2023-03-03T03:47:12.876Z,32.60
2023-03-03T03:48:16.893Z,31.10
2023-03-03T03:49:20.907Z,20.40
2023-03-03T03:50:24.595Z,25.60
2023-03-03T03:51:27.355Z,24.70
2023-03-03T03:52:30.032Z,25.60
2023-03-03T03:53:32.537Z,24.90
2023-03-03T03:54:35.632Z,22.50
2023-03-03T03:55:38.475Z,21.91
2023-03-03T03:56:41.477Z,20.30
2023-03-03T03:57:44.143Z,22.20
2023-03-03T03:58:46.591Z,21.00
2023-03-03T03:59:49.969Z,20.10
2023-03-03T04:00:53.015Z,23.20
2023-03-03T04:01:55.466Z,23.80
2023-03-03T04:02:58.239Z,22.90
2023-03-03T04:04:02.444Z,23.80
2023-03-03T04:05:05.777Z,20.10
2023-03-03T04:06:08.500Z,21.80
2023-03-03T04:07:14.789Z,25.00
2023-03-03T04:08:18.113Z,23.10
2023-03-03T04:09:20.670Z,17.10
2023-03-03T04:10:24.308Z,23.70
2023-03-03T04:11:26.743Z,15.50
2023-03-03T04:12:29.454Z,23.90
2023-03-03T04:13:34.363Z,24.40
2023-03-03T04:14:37.252Z,23.80
2023-03-03T04:15:41.280Z,24.91
2023-03-03T04:16:43.773Z,23.40
2023-03-03T04:17:46.837Z,22.80
2023-03-03T04:18:49.654Z,24.00
2023-03-03T04:19:55.005Z,26.40
2023-03-03T04:20:57.962Z,26.30
2023-03-03T04:22:00.655Z,23.20
2023-03-03T04:23:03.096Z,26.50
2023-03-03T04:24:06.739Z,26.80
2023-03-03T04:25:14.150Z,25.00
2023-03-03T04:26:18.563Z,27.20
2023-03-03T04:27:22.566Z,28.60
2023-03-03T04:28:26.754Z,25.30
2023-03-03T04:29:29.665Z,27.60
2023-03-03T04:30:33.761Z,28.90
2023-03-03T04:31:36.604Z,27.90
2023-03-03T04:32:39.683Z,28.10
2023-03-03T04:33:43.824Z,29.70
2023-03-03T04:34:48.997Z,28.90
2023-03-03T04:35:51.051Z,31.70
2023-03-03T04:36:56.234Z,32.10
2023-03-03T04:37:58.621Z,29.80
2023-03-03T04:39:01.678Z,32.20
2023-03-03T04:40:07.665Z,31.73
2023-03-03T04:41:10.879Z,33.50
2023-03-03T04:42:14.009Z,28.20
2023-03-03T04:43:16.766Z,19.00
2023-03-03T04:44:19.227Z,25.70
2023-03-03T04:45:21.772Z,33.00
2023-03-03T04:46:24.644Z,32.91
2023-03-03T04:47:28.353Z,32.10
2023-03-03T04:48:30.994Z,30.70
2023-03-03T04:49:33.496Z,29.30
2023-03-03T04:50:36.408Z,30.73
2023-03-03T04:51:39.081Z,29.60
2023-03-03T04:52:42.062Z,30.09
2023-03-03T04:53:44.582Z,29.50
2023-03-03T04:54:46.941Z,28.50
2023-03-03T04:55:53.145Z,31.40
2023-03-03T04:56:56.470Z,32.00
2023-03-03T04:57:59.156Z,30.70
2023-03-03T04:59:01.605Z,30.30
2023-03-03T05:00:06.533Z,30.70
2023-03-03T05:01:14.307Z,30.20
2023-03-03T05:02:17.311Z,26.10
2023-03-03T05:03:20.014Z,27.40
2023-03-03T05:04:22.549Z,23.30
2023-03-03T05:05:25.019Z,18.30
2023-03-03T05:06:27.409Z,23.20
2023-03-03T05:07:30.785Z,18.30
2023-03-03T05:08:33.765Z,20.60
2023-03-03T05:09:37.190Z,20.50
2023-03-03T05:10:41.251Z,20.20
2023-03-03T05:11:43.612Z,20.90
2023-03-03T05:12:45.972Z,17.50
2023-03-03T05:13:50.717Z,20.60
2023-03-03T05:14:53.098Z,18.60
2023-03-03T05:15:56.376Z,15.30
2023-03-03T05:16:58.840Z,15.70
2023-03-03T05:18:04.085Z,16.60
2023-03-03T05:19:06.528Z,15.80
2023-03-03T05:20:11.457Z,14.70
2023-03-03T05:21:14.568Z,15.60
2023-03-03T05:22:17.687Z,11.36
2023-03-03T05:23:22.773Z,16.30
2023-03-03T05:24:25.120Z,15.70
2023-03-03T05:25:28.348Z,15.50
2023-03-03T05:26:30.773Z,15.80
2023-03-03T05:27:33.268Z,14.60
2023-03-03T05:28:35.511Z,11.30
2023-03-03T05:29:38.640Z,14.20
2023-03-03T05:30:41.241Z,12.30
2023-03-03T05:31:45.561Z,13.60
2023-03-03T05:32:48.106Z,11.20
2023-03-03T05:33:50.726Z,13.20
2023-03-03T05:34:53.477Z,11.30
2023-03-03T05:35:57.167Z,13.40
2023-03-03T05:36:59.682Z,14.70
2023-03-03T05:38:05.305Z,13.90
2023-03-03T05:39:08.216Z,12.50
2023-03-03T05:40:13.203Z,12.50
2023-03-03T05:41:15.856Z,13.70
2023-03-03T05:42:18.239Z,10.20
2023-03-03T05:43:20.527Z,11.20
2023-03-03T05:44:22.647Z,11.80
2023-03-03T05:45:24.896Z,13.00
2023-03-03T05:46:27.286Z,10.80
2023-03-03T05:47:29.576Z,11.80
2023-03-03T05:48:31.956Z,15.40
2023-03-03T05:49:34.777Z,13.40
2023-03-03T05:50:39.337Z,11.91
2023-03-03T05:51:42.347Z,15.90
2023-03-03T05:52:52.197Z,15.70
2023-03-03T05:53:56.471Z,16.40
2023-03-03T05:54:58.992Z,16.40
2023-03-03T05:56:01.349Z,17.40
2023-03-03T05:57:03.806Z,18.10
2023-03-03T05:58:06.380Z,16.00
2023-03-03T05:59:09.587Z,13.50
2023-03-03T06:00:13.656Z,13.60
2023-03-03T06:01:16.014Z,16.80
2023-03-03T06:02:18.884Z,17.70
2023-03-03T06:03:22.188Z,20.00
2023-03-03T06:04:24.545Z,16.80
2023-03-03T06:05:27.629Z,15.90
2023-03-03T06:06:30.462Z,17.30
2023-03-03T06:07:32.699Z,18.00
2023-03-03T06:08:35.038Z,18.60
2023-03-03T06:09:37.903Z,17.40
2023-03-03T06:10:40.653Z,22.40
2023-03-03T06:11:44.348Z,18.80
2023-03-03T06:12:46.706Z,21.80
2023-03-03T06:13:49.061Z,17.70
2023-03-03T06:14:52.318Z,18.00
2023-03-03T06:15:54.536Z,16.20
2023-03-03T06:16:57.606Z,16.50
2023-03-03T06:18:00.099Z,18.64
2023-03-03T06:19:02.460Z,17.90
2023-03-03T06:20:06.268Z,19.40
2023-03-03T06:21:08.799Z,20.40
2023-03-03T06:22:11.142Z,20.10
2023-03-03T06:23:13.499Z,20.70
2023-03-03T06:24:15.982Z,18.70
2023-03-03T06:25:19.033Z,19.50
2023-03-03T06:26:21.652Z,19.40
2023-03-03T06:27:24.002Z,21.30
2023-03-03T06:28:26.643Z,19.70
2023-03-03T06:29:29.052Z,21.40
2023-03-03T06:30:31.597Z,19.30
2023-03-03T06:31:35.133Z,19.90
2023-03-03T06:32:38.058Z,22.00
2023-03-03T06:33:42.675Z,18.09
2023-03-03T06:34:44.889Z,20.10
2023-03-03T06:35:51.920Z,21.50
2023-03-03T06:36:54.636Z,21.70
2023-03-03T06:37:58.064Z,21.10
2023-03-03T06:39:01.548Z,21.00
2023-03-03T06:40:05.863Z,20.20
2023-03-03T06:41:08.410Z,21.20
2023-03-03T06:42:10.758Z,22.20
2023-03-03T06:43:13.421Z,22.10
2023-03-03T06:44:15.814Z,22.20
2023-03-03T06:45:18.418Z,22.30
2023-03-03T06:46:21.030Z,23.27
2023-03-03T06:47:23.558Z,25.20
2023-03-03T06:48:26.194Z,20.90
2023-03-03T06:49:28.661Z,22.30
2023-03-03T06:50:31.426Z,22.50
2023-03-03T06:51:39.836Z,9.20
2023-03-03T06:52:42.458Z,17.90
2023-03-03T06:53:45.879Z,18.40
2023-03-03T06:54:49.233Z,19.80
2023-03-03T06:55:53.728Z,19.40
2023-03-03T06:57:02.877Z,16.90
2023-03-03T06:58:18.678Z,18.10
2023-03-03T06:59:22.756Z,20.40
2023-03-03T07:00:30.354Z,14.70
2023-03-03T07:01:35.349Z,17.20
2023-03-03T07:02:40.272Z,12.80
2023-03-03T07:03:44.534Z,14.60
2023-03-03T07:04:48.602Z,14.40
2023-03-03T07:05:52.790Z,16.00
2023-03-03T07:06:58.682Z,16.80
2023-03-03T07:08:01.178Z,15.00
2023-03-03T07:09:08.592Z,16.80
2023-03-03T07:10:31.450Z,16.50
2023-03-03T07:11:35.732Z,17.20
2023-03-03T07:12:38.306Z,12.90
2023-03-03T07:13:44.277Z,14.20
2023-03-03T07:14:51.512Z,11.30
2023-03-03T07:15:56.722Z,15.60
2023-03-03T07:17:05.910Z,13.70
2023-03-03T07:18:28.754Z,16.90
2023-03-03T07:19:35.999Z,18.50
2023-03-03T07:20:40.949Z,16.80
2023-03-03T07:21:43.347Z,15.80
2023-03-03T07:22:46.771Z,15.70
2023-03-03T07:23:51.917Z,13.30
2023-03-03T07:24:58.187Z,1.60
2023-03-03T07:26:00.626Z,16.20
2023-03-03T07:27:21.037Z,18.70
2023-03-03T07:28:26.134Z,18.30
2023-03-03T07:29:30.148Z,17.90
2023-03-03T07:30:32.972Z,12.10
2023-03-03T07:31:39.128Z,16.20
2023-03-03T07:32:43.459Z,15.00
2023-03-03T07:33:47.399Z,15.80
2023-03-03T07:34:52.468Z,16.80
2023-03-03T07:35:59.354Z,18.50
2023-03-03T07:37:06.188Z,18.40
2023-03-03T07:38:19.909Z,15.80
2023-03-03T07:39:28.931Z,16.60
2023-03-03T07:40:35.649Z,17.70
2023-03-03T07:41:38.607Z,19.00
2023-03-03T07:42:42.259Z,13.80
2023-03-03T07:43:54.042Z,9.80
2023-03-03T07:44:59.190Z,21.80
2023-03-03T07:46:05.413Z,20.00
2023-03-03T07:47:32.042Z,15.90
2023-03-03T07:48:42.120Z,10.20
2023-03-03T07:49:45.760Z,14.30
2023-03-03T07:50:49.543Z,12.40
2023-03-03T07:51:57.450Z,11.40
2023-03-03T07:53:01.966Z,15.60
2023-03-03T07:54:31.053Z,12.20
2023-03-03T07:55:39.119Z,13.30
2023-03-03T07:56:41.906Z,15.50
2023-03-03T07:57:45.316Z,18.00
2023-03-03T07:58:48.495Z,19.90
2023-03-03T08:00:03.501Z,12.90
2023-03-03T08:01:31.174Z,17.20
2023-03-03T08:02:42.920Z,15.80
2023-03-03T08:03:48.939Z,14.00
2023-03-03T08:04:52.066Z,11.40
2023-03-03T08:05:55.071Z,9.20
2023-03-03T08:07:00.504Z,10.80
2023-03-03T08:08:31.052Z,13.20
2023-03-03T08:09:46.216Z,11.30
2023-03-03T08:10:56.218Z,6.80
2023-03-03T08:12:09.888Z,11.50
2023-03-03T08:13:21.760Z,10.80
2023-03-03T08:14:34.767Z,10.10
2023-03-03T08:15:38.169Z,12.10
2023-03-03T08:16:41.710Z,18.40
2023-03-03T08:17:45.357Z,15.45
2023-03-03T08:18:50.353Z,15.00
2023-03-03T08:19:55.371Z,14.00
2023-03-03T08:21:00.744Z,16.10
2023-03-03T08:22:21.741Z,14.00
2023-03-03T08:23:25.101Z,10.20
2023-03-03T08:24:28.772Z,14.30
2023-03-03T08:25:31.080Z,12.10
2023-03-03T08:26:33.838Z,11.30
2023-03-03T08:27:36.459Z,11.70
2023-03-03T08:28:38.936Z,14.10
2023-03-03T08:29:42.458Z,13.90
2023-03-03T08:30:47.146Z,15.70
2023-03-03T08:31:49.566Z,13.20
2023-03-03T08:32:52.631Z,8.30
2023-03-03T08:33:55.623Z,16.80
2023-03-03T08:34:57.891Z,10.91
2023-03-03T08:36:02.364Z,12.50
2023-03-03T08:37:05.305Z,11.30
2023-03-03T08:38:08.364Z,12.50
2023-03-03T08:39:10.835Z,15.10
2023-03-03T08:40:13.934Z,16.30
2023-03-03T08:41:16.957Z,13.45
2023-03-03T08:42:19.119Z,3.70
2023-03-03T08:43:22.248Z,8.40
2023-03-03T08:44:25.002Z,11.90
2023-03-03T08:45:28.901Z,14.00
2023-03-03T08:46:31.332Z,14.00
2023-03-03T08:47:33.814Z,10.90
2023-03-03T08:48:36.042Z,12.10
2023-03-03T08:49:39.392Z,13.60
2023-03-03T08:50:42.876Z,13.70
2023-03-03T08:51:45.393Z,12.70
2023-03-03T08:52:48.032Z,17.20
2023-03-03T08:53:50.952Z,10.64
2023-03-03T08:54:54.774Z,8.00
2023-03-03T08:55:57.150Z,11.60
2023-03-03T08:56:59.513Z,10.40
2023-03-03T08:58:01.861Z,4.90
2023-03-03T08:59:04.596Z,7.40
2023-03-03T09:00:10.806Z,10.80
2023-03-03T09:01:16.276Z,9.00
2023-03-03T09:02:19.372Z,10.40
2023-03-03T09:03:22.478Z,7.10
2023-03-03T09:04:25.899Z,4.60
2023-03-03T09:05:28.473Z,6.30
2023-03-03T09:06:30.705Z,8.50
2023-03-03T09:07:33.240Z,5.45
2023-03-03T09:08:36.112Z,8.30
2023-03-03T09:09:39.647Z,7.30
2023-03-03T09:10:42.408Z,6.90
2023-03-03T09:11:47.558Z,3.40
2023-03-03T09:12:50.225Z,4.70
2023-03-03T09:14:09.096Z,8.70
2023-03-03T09:15:20.910Z,7.30
2023-03-03T09:16:24.485Z,6.80
2023-03-03T09:17:31.591Z,2.60
2023-03-03T09:18:38.883Z,8.20
2023-03-03T09:19:44.348Z,8.30
2023-03-03T09:20:49.451Z,6.40
2023-03-03T09:21:56.692Z,7.80
2023-03-03T09:23:01.937Z,7.60
2023-03-03T09:24:07.362Z,8.00
2023-03-03T09:25:16.118Z,9.40
2023-03-03T09:26:31.618Z,7.30
2023-03-03T09:27:37.814Z,5.10
2023-03-03T09:28:40.160Z,1.80
2023-03-03T09:29:42.294Z,1.90
2023-03-03T09:30:49.057Z,1.60
2023-03-03T09:31:58.751Z,1.50
2023-03-03T09:33:04.398Z,4.60
2023-03-03T09:34:16.845Z,2.50
2023-03-03T09:35:40.407Z,4.40
2023-03-03T09:36:44.038Z,7.00
2023-03-03T09:37:49.945Z,6.70
2023-03-03T09:38:53.732Z,6.30
2023-03-03T09:39:57.287Z,8.30
2023-03-03T09:41:16.820Z,7.80
2023-03-03T09:42:43.569Z,4.80
2023-03-03T09:43:49.515Z,5.70
2023-03-03T09:45:15.261Z,8.70
2023-03-03T09:46:24.217Z,9.60
2023-03-03T09:47:45.809Z,9.80
2023-03-03T09:49:07.235Z,10.00
2023-03-03T09:50:16.827Z,13.80
2023-03-03T09:51:43.807Z,11.70
2023-03-03T09:53:02.084Z,8.90
2023-03-03T09:54:20.163Z,10.10
2023-03-03T09:55:38.480Z,6.10
2023-03-03T09:56:50.661Z,14.40
2023-03-03T09:58:11.629Z,17.20
2023-03-03T10:01:04.567Z,20.60
2023-03-03T10:02:17.146Z,9.20
2023-03-03T10:04:55.167Z,17.90
2023-03-03T10:06:17.245Z,14.30
2023-03-03T10:07:38.159Z,12.90
2023-03-03T10:09:09.544Z,8.70
2023-03-03T10:10:29.188Z,5.00
2023-03-03T10:11:43.865Z,9.30
2023-03-03T10:12:58.658Z,7.90
2023-03-03T10:14:21.178Z,8.20
2023-03-03T10:15:40.540Z,11.20
2023-03-03T10:17:08.106Z,10.10
2023-03-03T10:18:33.412Z,5.00
2023-03-03T10:19:39.329Z,13.10
2023-03-03T10:20:55.160Z,16.60
2023-03-03T10:22:29.922Z,14.00
2023-03-03T10:23:41.944Z,12.90
2023-03-03T10:25:07.624Z,11.70
2023-03-03T10:26:14.672Z,9.00
2023-03-03T10:27:32.620Z,8.50
2023-03-03T10:28:51.104Z,12.00
2023-03-03T10:30:38.310Z,9.60
2023-03-03T10:31:36.328Z,9.80
2023-03-03T10:32:42.599Z,7.80
2023-03-03T10:34:08.564Z,8.40
2023-03-03T10:35:29.703Z,11.80
2023-03-03T10:36:38.599Z,8.20
2023-03-03T10:37:53.692Z,10.20
2023-03-03T10:41:10.036Z,6.40
2023-03-03T10:42:32.670Z,6.30
2023-03-03T10:43:44.166Z,14.20
2023-03-03T10:45:11.743Z,10.30
2023-03-03T10:46:22.373Z,11.70
2023-03-03T10:47:53.662Z,13.70
2023-03-03T10:49:23.793Z,8.30
2023-03-03T10:50:59.044Z,12.10
2023-03-03T10:52:21.633Z,8.00
2023-03-03T10:53:42.905Z,11.00
2023-03-03T10:55:19.191Z,11.50
2023-03-03T10:56:52.914Z,14.30
2023-03-03T10:58:03.155Z,7.60
2023-03-03T10:59:43.608Z,6.00
2023-03-03T11:01:08.119Z,11.90
2023-03-03T11:02:16.678Z,10.80
2023-03-03T11:03:38.056Z,11.10
2023-03-03T11:04:46.720Z,11.70
2023-03-03T11:06:06.736Z,8.90
2023-03-03T11:07:15.435Z,14.80
2023-03-03T11:08:24.399Z,6.70
2023-03-03T11:09:37.245Z,7.90
2023-03-03T11:11:06.177Z,9.30
2023-03-03T11:12:33.940Z,5.00
2023-03-03T11:14:15.156Z,17.00
2023-03-03T11:15:33.399Z,12.60
2023-03-03T11:16:46.894Z,12.20
2023-03-03T11:18:25.587Z,12.80
2023-03-03T11:19:29.622Z,12.50
2023-03-03T11:20:35.689Z,10.10
2023-03-03T11:21:45.138Z,11.20
2023-03-03T11:23:00.355Z,8.30
2023-03-03T11:24:10.229Z,10.40
2023-03-03T11:25:22.316Z,15.70
2023-03-03T11:26:40.155Z,19.80
2023-03-03T11:28:02.194Z,17.00
2023-03-03T11:29:11.248Z,10.90
2023-03-03T11:30:26.198Z,11.10
2023-03-03T11:31:54.009Z,6.40
2023-03-03T11:33:22.291Z,5.70
2023-03-03T11:34:37.431Z,6.60
2023-03-03T11:35:52.012Z,10.00
2023-03-03T11:37:09.626Z,8.70
2023-03-03T11:38:27.810Z,12.60
2023-03-03T11:39:30.895Z,8.40
2023-03-03T11:40:43.297Z,5.70
2023-03-03T11:42:00.387Z,9.90
2023-03-03T11:43:08.887Z,9.20
2023-03-03T11:44:42.229Z,7.70
2023-03-03T11:45:53.988Z,4.40
2023-03-03T11:47:00.685Z,9.40
2023-03-03T11:48:09.591Z,7.10
2023-03-03T11:49:18.914Z,8.90
2023-03-03T11:50:24.903Z,6.10
2023-03-03T11:51:49.566Z,5.80
2023-03-03T11:53:10.842Z,4.80
2023-03-03T11:54:29.086Z,5.60
2023-03-03T11:55:37.546Z,1.10
2023-03-03T11:56:42.576Z,7.20
2023-03-03T11:57:48.925Z,8.30
2023-03-03T11:59:07.520Z,6.00
2023-03-03T12:00:32.542Z,12.40
2023-03-03T12:01:56.092Z,5.00
2023-03-03T12:03:17.467Z,3.40
2023-03-03T12:04:35.402Z,7.50
2023-03-03T12:07:36.151Z,10.40
2023-03-03T12:08:50.898Z,2.90
2023-03-03T12:10:03.237Z,4.00
2023-03-03T12:11:28.301Z,1.70
2023-03-03T12:12:34.185Z,4.40
2023-03-03T12:13:41.072Z,4.90
2023-03-03T12:15:10.259Z,2.90
2023-03-03T12:16:25.462Z,2.50
2023-03-03T12:17:35.149Z,4.80
2023-03-03T12:18:58.725Z,5.70
2023-03-03T12:20:07.340Z,5.40
2023-03-03T12:21:17.272Z,3.40
2023-03-03T12:22:23.263Z,3.00
2023-03-03T12:23:45.234Z,6.90
2023-03-03T12:25:05.029Z,5.80
2023-03-03T12:27:30.732Z,6.90
2023-03-03T12:29:56.263Z,6.30
2023-03-03T12:31:11.348Z,9.50
2023-03-03T12:32:19.539Z,4.90
2023-03-03T12:33:40.510Z,7.90
2023-03-03T12:34:49.425Z,6.70
2023-03-03T12:36:16.753Z,9.40
2023-03-03T12:37:25.571Z,6.90
2023-03-03T12:38:49.213Z,8.40
2023-03-03T12:41:19.853Z,1.70
2023-03-03T12:42:31.945Z,5.90
2023-03-03T12:43:57.581Z,7.00
2023-03-03T12:45:03.525Z,4.40
2023-03-03T12:46:29.161Z,7.90
2023-03-03T12:47:45.203Z,3.80
2023-03-03T12:48:47.909Z,4.00
2023-03-03T12:50:26.669Z,6.80
2023-03-03T12:51:58.156Z,4.00
2023-03-03T12:53:13.991Z,8.40
2023-03-03T12:54:26.147Z,1.90
2023-03-03T12:55:38.916Z,6.10
2023-03-03T12:56:54.220Z,3.00
2023-03-03T12:58:00.235Z,5.80
2023-03-03T12:59:13.413Z,7.40
2023-03-03T13:00:23.034Z,5.40
2023-03-03T13:01:29.751Z,6.40
2023-03-03T13:03:07.607Z,3.40
2023-03-03T13:04:29.053Z,7.50
2023-03-03T13:05:50.361Z,1.50
2023-03-03T13:06:59.328Z,9.60
2023-03-03T13:08:30.472Z,9.10
2023-03-03T13:09:57.893Z,6.50
2023-03-03T13:11:23.656Z,10.10
2023-03-03T13:12:41.344Z,9.30
2023-03-03T13:13:59.270Z,9.40
2023-03-03T13:15:18.355Z,7.80
2023-03-03T13:16:41.103Z,5.90
2023-03-03T13:17:49.302Z,7.20
2023-03-03T13:19:04.321Z,5.50
2023-03-03T13:20:31.900Z,7.40
2023-03-03T13:22:01.546Z,6.90
2023-03-03T13:23:38.142Z,6.90
2023-03-03T13:25:06.039Z,7.50
2023-03-03T13:26:18.409Z,5.30
2023-03-03T13:27:24.423Z,10.10
2023-03-03T13:28:42.439Z,5.60
2023-03-03T13:30:00.605Z,8.20
2023-03-03T13:31:24.918Z,5.00
2023-03-03T13:32:51.733Z,5.50
2023-03-03T13:33:56.578Z,4.10
2023-03-03T13:35:02.551Z,9.70
2023-03-03T13:37:21.954Z,6.30
2023-03-03T13:38:44.098Z,4.70
2023-03-03T13:40:00.130Z,5.10
2023-03-03T13:41:31.623Z,10.10
2023-03-03T13:43:00.397Z,6.40
2023-03-03T13:44:25.648Z,7.90
2023-03-03T13:45:52.810Z,5.80
2023-03-03T13:47:18.857Z,3.40
2023-03-03T13:48:31.332Z,7.50
2023-03-03T13:49:43.066Z,8.50
2023-03-03T13:50:57.575Z,5.70
2023-03-03T13:52:12.206Z,2.80
2023-03-03T13:53:41.157Z,5.60
2023-03-03T13:55:09.742Z,6.10
2023-03-03T13:56:28.987Z,6.60
2023-03-03T13:57:52.747Z,6.40
2023-03-03T13:59:17.714Z,5.40
2023-03-03T14:00:33.049Z,5.10
2023-03-03T14:01:54.300Z,5.80
2023-03-03T14:03:06.270Z,3.50
2023-03-03T14:04:33.661Z,5.60
2023-03-03T14:05:42.341Z,5.80
2023-03-03T14:06:49.385Z,5.50
2023-03-03T14:08:01.836Z,2.90
2023-03-03T14:09:29.201Z,6.50
2023-03-03T14:10:44.313Z,2.40
2023-03-03T14:11:56.503Z,4.50
2023-03-03T14:13:17.120Z,1.50
2023-03-03T14:14:41.861Z,5.60
2023-03-03T14:16:04.667Z,5.50
2023-03-03T14:17:25.243Z,6.90
2023-03-03T14:18:37.707Z,1.00
2023-03-03T14:19:48.841Z,7.30
2023-03-03T14:20:54.200Z,5.00
2023-03-03T14:22:25.218Z,5.70
2023-03-03T14:23:55.790Z,5.50
2023-03-03T14:25:12.093Z,5.70
2023-03-03T14:26:14.973Z,5.70
2023-03-03T14:27:26.501Z,7.00
2023-03-03T14:28:39.431Z,5.60
2023-03-03T14:29:41.907Z,2.80
2023-03-03T14:30:44.533Z,7.40
2023-03-03T14:31:47.502Z,6.50
2023-03-03T14:33:13.730Z,5.90
2023-03-03T14:34:40.109Z,5.50
2023-03-03T14:35:58.008Z,6.70
2023-03-03T14:37:10.760Z,6.70
2023-03-03T14:38:24.186Z,6.40
2023-03-03T14:39:37.063Z,8.60
2023-03-03T14:40:44.650Z,10.20
2023-03-03T14:41:47.572Z,10.90
2023-03-03T14:42:57.108Z,5.82
2023-03-03T14:44:23.058Z,9.80
2023-03-03T14:45:39.264Z,9.60
2023-03-03T14:46:44.390Z,8.00
2023-03-03T14:47:47.835Z,7.90
2023-03-03T14:48:53.684Z,8.20
2023-03-03T14:50:00.175Z,10.60
2023-03-03T14:51:29.573Z,6.80
2023-03-03T14:52:34.467Z,9.30
2023-03-03T14:53:40.156Z,9.10
2023-03-03T14:54:51.979Z,12.10
2023-03-03T14:55:55.730Z,13.60
2023-03-03T14:57:13.907Z,12.80
2023-03-03T14:58:41.153Z,9.40
2023-03-03T15:00:02.906Z,11.50
2023-03-03T15:01:25.319Z,12.60
2023-03-03T15:02:31.963Z,13.30
2023-03-03T15:03:38.958Z,10.90
2023-03-03T15:04:42.775Z,15.80
2023-03-03T15:05:50.293Z,13.60
2023-03-03T15:06:56.346Z,10.40
2023-03-03T15:08:05.579Z,18.10